createdAt,value
2022-12-01T00:02:44.386Z,6.00
2022-12-01T00:05:29.781Z,5.90
2022-12-01T00:08:15.186Z,6.00
2022-12-01T00:11:05.745Z,6.00
2022-12-01T00:13:51.081Z,6.00
2022-12-01T00:16:36.630Z,6.00
2022-12-01T00:19:25.406Z,6.00
2022-12-01T00:22:10.454Z,5.90
2022-12-01T00:24:55.868Z,6.00
2022-12-01T00:27:41.681Z,6.00
2022-12-01T00:30:27.366Z,5.90
2022-12-01T00:33:12.830Z,6.00
2022-12-01T00:35:59.597Z,6.00
2022-12-01T00:38:45.334Z,6.10
2022-12-01T00:41:30.581Z,6.00
2022-12-01T00:44:16.091Z,6.10
2022-12-01T00:47:01.440Z,6.10
2022-12-01T00:49:47.097Z,6.10
2022-12-01T00:52:32.677Z,6.10
2022-12-01T00:55:18.004Z,6.10
2022-12-01T00:58:04.380Z,6.10
2022-12-01T01:00:56.275Z,6.10
2022-12-01T01:03:41.407Z,6.10
2022-12-01T01:06:26.899Z,6.10
2022-12-01T01:09:13.325Z,6.10
2022-12-01T01:11:58.534Z,6.20
2022-12-01T01:14:44.637Z,6.10
2022-12-01T01:17:29.626Z,6.20
2022-12-01T01:20:15.166Z,6.10
2022-12-01T01:23:00.580Z,6.10
2022-12-01T01:25:45.852Z,6.20
2022-12-01T01:28:32.020Z,6.10
2022-12-01T01:31:20.533Z,6.20
2022-12-01T01:34:06.154Z,6.20
2022-12-01T01:36:51.728Z,6.20
2022-12-01T01:39:37.049Z,6.20
2022-12-01T01:42:22.573Z,6.20
2022-12-01T01:45:25.101Z,6.20
2022-12-01T01:48:13.000Z,6.20
2022-12-01T01:50:58.300Z,6.20
2022-12-01T01:53:46.658Z,6.20
2022-12-01T01:56:32.315Z,6.20
2022-12-01T01:59:23.967Z,6.20
2022-12-01T02:02:11.352Z,6.10
2022-12-01T02:05:02.560Z,6.10
2022-12-01T02:07:48.619Z,6.10
2022-12-01T02:11:04.617Z,6.10
2022-12-01T02:14:28.788Z,6.10
2022-12-01T02:17:30.446Z,6.10
2022-12-01T02:20:53.579Z,6.10
2022-12-01T02:23:41.400Z,6.00
2022-12-01T02:26:45.165Z,5.90
2022-12-01T02:30:18.814Z,5.80
2022-12-01T02:33:19.376Z,5.80
2022-12-01T02:36:17.274Z,5.70
2022-12-01T02:39:07.070Z,5.60
2022-12-01T02:42:03.681Z,5.50
2022-12-01T02:44:49.194Z,5.50
2022-12-01T02:47:36.381Z,5.40
2022-12-01T02:50:23.925Z,5.40
2022-12-01T02:53:12.837Z,5.40
2022-12-01T02:55:58.998Z,5.40
2022-12-01T02:58:44.330Z,5.40
2022-12-01T03:01:42.429Z,5.40
2022-12-01T03:04:33.546Z,5.40
2022-12-01T03:07:56.327Z,5.30
2022-12-01T03:10:48.591Z,5.30
2022-12-01T03:13:46.089Z,5.30
2022-12-01T03:16:31.509Z,5.30
2022-12-01T03:19:33.936Z,5.20
2022-12-01T03:22:28.423Z,5.20
2022-12-01T03:25:15.678Z,5.20
2022-12-01T03:31:13.270Z,5.10
2022-12-01T03:34:30.469Z,5.20
2022-12-01T03:37:31.684Z,5.20
2022-12-01T03:40:21.626Z,5.20
2022-12-01T03:43:11.642Z,5.30
2022-12-01T03:46:19.529Z,5.30
2022-12-01T03:49:05.661Z,5.20
2022-12-01T03:52:32.391Z,5.10
2022-12-01T03:55:30.603Z,5.10
2022-12-01T03:58:21.155Z,5.00
2022-12-01T04:01:07.827Z,5.10
2022-12-01T04:03:52.722Z,5.10
2022-12-01T04:06:40.257Z,5.20
2022-12-01T04:09:25.811Z,5.20
2022-12-01T04:12:29.402Z,5.20
2022-12-01T04:15:15.123Z,5.20
2022-12-01T04:18:00.437Z,5.20
2022-12-01T04:20:46.874Z,5.20
2022-12-01T04:23:51.670Z,5.20
2022-12-01T04:26:38.080Z,5.20
2022-12-01T04:29:23.278Z,5.20
2022-12-01T04:32:09.005Z,5.20
2022-12-01T04:34:54.360Z,5.10
2022-12-01T04:37:40.217Z,5.00
2022-12-01T04:40:25.761Z,4.90
2022-12-01T04:43:10.984Z,4.90
2022-12-01T04:45:56.341Z,4.90
2022-12-01T04:48:41.642Z,4.80
2022-12-01T04:51:27.020Z,4.80
2022-12-01T04:54:12.723Z,4.70
2022-12-01T04:56:58.073Z,4.70
2022-12-01T04:59:43.523Z,4.80
2022-12-01T05:02:28.835Z,4.70
2022-12-01T05:05:14.447Z,4.70
2022-12-01T05:08:00.041Z,4.60
2022-12-01T05:10:45.266Z,4.70
2022-12-01T05:13:30.761Z,4.60
2022-12-01T05:16:22.406Z,4.60
2022-12-01T05:19:26.395Z,4.40
2022-12-01T05:22:11.708Z,4.40
2022-12-01T05:24:57.153Z,4.50
2022-12-01T05:27:42.504Z,4.40
2022-12-01T05:30:28.871Z,4.20
2022-12-01T05:33:14.501Z,4.10
2022-12-01T05:35:59.900Z,4.10
2022-12-01T05:38:45.269Z,4.10
2022-12-01T05:41:30.819Z,4.00
2022-12-01T05:44:16.272Z,4.10
2022-12-01T05:47:01.800Z,4.10
2022-12-01T05:49:47.530Z,4.10
2022-12-01T05:52:35.117Z,4.10
2022-12-01T05:55:20.290Z,4.10
2022-12-01T05:58:06.471Z,4.10
2022-12-01T06:00:51.641Z,4.20
2022-12-01T06:03:37.177Z,4.10
2022-12-01T06:06:22.767Z,4.20
2022-12-01T06:09:08.403Z,4.20
2022-12-01T06:11:53.652Z,4.20
2022-12-01T06:14:39.161Z,4.20
2022-12-01T06:17:24.590Z,4.30
2022-12-01T06:20:10.813Z,4.40
2022-12-01T06:22:55.860Z,4.40
2022-12-01T06:25:41.233Z,4.30
2022-12-01T06:28:26.601Z,4.40
2022-12-01T06:31:13.097Z,4.50
2022-12-01T06:33:58.477Z,4.50
2022-12-01T06:36:43.788Z,4.60
2022-12-01T06:39:29.327Z,4.70
2022-12-01T06:42:15.286Z,4.80
2022-12-01T06:45:00.640Z,4.80
2022-12-01T06:47:48.297Z,4.70
2022-12-01T06:50:33.362Z,4.70
2022-12-01T06:53:18.637Z,4.70
2022-12-01T06:56:05.182Z,4.70
2022-12-01T06:58:50.779Z,4.60
2022-12-01T07:01:36.797Z,4.60
2022-12-01T07:04:21.918Z,4.60
2022-12-01T07:07:07.626Z,4.60
2022-12-01T07:09:52.910Z,4.50
2022-12-01T07:12:38.921Z,4.60
2022-12-01T07:15:24.451Z,4.50
2022-12-01T07:18:09.517Z,4.60
2022-12-01T07:20:59.376Z,4.80
2022-12-01T07:23:44.545Z,4.90
2022-12-01T07:26:29.747Z,5.00
2022-12-01T07:29:15.365Z,5.00
2022-12-01T07:32:00.538Z,5.00
2022-12-01T07:34:45.916Z,4.90
2022-12-01T07:37:31.313Z,4.90
2022-12-01T07:40:16.610Z,5.00
2022-12-01T07:43:01.997Z,5.10
2022-12-01T07:45:47.462Z,5.10
2022-12-01T07:48:32.827Z,5.20
2022-12-01T07:51:18.559Z,5.20
2022-12-01T07:54:06.282Z,5.30
2022-12-01T07:56:51.760Z,5.20
2022-12-01T07:59:37.218Z,5.30
2022-12-01T08:02:22.535Z,5.20
2022-12-01T08:05:08.161Z,5.30
2022-12-01T08:07:53.929Z,5.30
2022-12-01T08:10:39.471Z,5.30
2022-12-01T08:13:24.911Z,5.40
2022-12-01T08:16:12.932Z,5.60
2022-12-01T08:18:58.468Z,5.70
2022-12-01T08:21:43.894Z,5.70
2022-12-01T08:24:29.327Z,5.80
2022-12-01T08:27:14.806Z,5.90
2022-12-01T08:30:00.382Z,5.80
2022-12-01T08:32:45.533Z,5.90
2022-12-01T08:35:31.054Z,5.90
2022-12-01T08:38:16.489Z,5.90
2022-12-01T08:41:07.842Z,5.90
2022-12-01T08:43:58.346Z,5.90
2022-12-01T08:46:44.323Z,6.00
2022-12-01T08:49:29.517Z,5.90
2022-12-01T08:52:14.876Z,5.90
2022-12-01T08:55:00.692Z,5.80
2022-12-01T08:57:46.025Z,5.90
2022-12-01T09:00:31.398Z,5.90
2022-12-01T09:03:16.852Z,6.00
2022-12-01T09:06:07.832Z,5.90
2022-12-01T09:08:53.194Z,5.80
2022-12-01T09:11:38.861Z,5.90
2022-12-01T09:14:24.443Z,5.80
2022-12-01T09:17:09.573Z,5.90
2022-12-01T09:19:55.037Z,5.90
2022-12-01T09:22:40.417Z,5.90
2022-12-01T09:25:25.822Z,6.00
2022-12-01T09:28:11.336Z,5.90
2022-12-01T09:30:57.048Z,5.80
2022-12-01T09:33:42.030Z,5.80
2022-12-01T09:36:29.682Z,5.70
2022-12-01T09:39:17.834Z,5.80
2022-12-01T09:42:09.365Z,5.80
2022-12-01T09:44:57.120Z,5.70
2022-12-01T09:47:46.579Z,5.70
2022-12-01T09:50:32.628Z,5.70
2022-12-01T09:53:26.235Z,5.60
2022-12-01T09:56:24.829Z,5.60
2022-12-01T09:59:17.810Z,5.50
2022-12-01T10:02:13.196Z,5.60
2022-12-01T10:05:01.200Z,5.50
2022-12-01T10:08:00.063Z,5.50
2022-12-01T10:10:48.547Z,5.60
2022-12-01T10:13:34.123Z,5.60
2022-12-01T10:16:28.699Z,5.60
2022-12-01T10:19:26.018Z,5.60
2022-12-01T10:22:33.150Z,5.60
2022-12-01T10:25:23.076Z,5.80
2022-12-01T10:28:39.058Z,5.80
2022-12-01T10:31:34.453Z,5.80
2022-12-01T10:34:21.747Z,5.90
2022-12-01T10:37:17.121Z,6.00
2022-12-01T10:40:02.481Z,5.90
2022-12-01T10:42:50.059Z,5.90
2022-12-01T10:45:40.490Z,5.90
2022-12-01T10:48:26.161Z,6.00
2022-12-01T10:51:16.796Z,6.10
2022-12-01T10:54:11.542Z,6.10
2022-12-01T10:56:57.904Z,6.20
2022-12-01T11:00:06.810Z,6.20
2022-12-01T11:02:52.465Z,6.30
2022-12-01T11:05:42.161Z,6.30
2022-12-01T11:08:45.281Z,6.40
2022-12-01T11:11:40.592Z,6.40
2022-12-01T11:14:40.919Z,6.50
2022-12-01T11:17:28.628Z,6.40
2022-12-01T11:20:30.321Z,6.50
2022-12-01T11:23:18.454Z,6.50
2022-12-01T11:26:06.285Z,6.50
2022-12-01T11:28:57.738Z,6.60
2022-12-01T11:31:47.746Z,6.70
2022-12-01T11:34:34.328Z,6.70
2022-12-01T11:37:22.142Z,6.70
2022-12-01T11:40:21.151Z,6.70
2022-12-01T11:43:07.206Z,6.70
2022-12-01T11:45:54.374Z,6.60
2022-12-01T11:48:39.949Z,6.60
2022-12-01T11:51:37.072Z,6.60
2022-12-01T11:54:25.890Z,6.70
2022-12-01T11:57:33.081Z,6.60
2022-12-01T12:00:34.302Z,6.60
2022-12-01T12:03:35.992Z,6.60
2022-12-01T12:06:45.674Z,6.50
2022-12-01T12:10:05.703Z,6.40
2022-12-01T12:12:58.427Z,6.40
2022-12-01T12:15:58.494Z,6.50
2022-12-01T12:19:11.989Z,6.50
2022-12-01T12:22:27.982Z,6.50
2022-12-01T12:25:45.768Z,6.50
2022-12-01T12:28:43.270Z,6.50
2022-12-01T12:32:03.307Z,6.50
2022-12-01T12:35:03.390Z,6.40
2022-12-01T12:38:09.747Z,6.50
2022-12-01T12:41:31.398Z,6.40
2022-12-01T12:44:40.101Z,6.30
2022-12-01T12:48:05.610Z,6.40
2022-12-01T12:51:01.468Z,6.20
2022-12-01T12:54:16.912Z,6.30
2022-12-01T12:57:07.050Z,6.40
2022-12-01T13:00:16.676Z,6.40
2022-12-01T13:03:23.501Z,6.60
2022-12-01T13:06:11.259Z,6.70
2022-12-01T13:09:23.341Z,6.70
2022-12-01T13:12:43.117Z,6.80
2022-12-01T13:15:30.596Z,6.80
2022-12-01T13:18:42.358Z,7.00
2022-12-01T13:21:34.843Z,6.80
2022-12-01T13:24:23.914Z,6.60
2022-12-01T13:27:19.573Z,6.60
2022-12-01T13:30:16.079Z,6.50
2022-12-01T13:33:06.059Z,6.40
2022-12-01T13:36:22.524Z,6.40
2022-12-01T13:39:16.060Z,6.30
2022-12-01T13:42:26.130Z,6.30
2022-12-01T13:45:19.137Z,6.30
2022-12-01T13:48:06.151Z,6.30
2022-12-01T13:51:00.208Z,6.20
2022-12-01T13:54:05.892Z,6.20
2022-12-01T13:57:03.712Z,6.20
2022-12-01T13:59:58.186Z,6.10
2022-12-01T14:02:43.732Z,6.10
2022-12-01T14:05:45.036Z,6.10
2022-12-01T14:08:33.811Z,6.10
2022-12-01T14:11:23.584Z,6.10
2022-12-01T14:14:09.083Z,6.10
2022-12-01T14:16:58.495Z,6.10
2022-12-01T14:19:52.601Z,6.00
2022-12-01T14:22:44.106Z,6.10
2022-12-01T14:25:30.745Z,6.10
2022-12-01T14:28:17.455Z,6.10
2022-12-01T14:31:03.920Z,6.10
2022-12-01T14:33:57.915Z,6.20
2022-12-01T14:36:49.454Z,6.00
2022-12-01T14:39:43.352Z,6.00
2022-12-01T14:42:57.783Z,5.90
2022-12-01T14:46:06.722Z,5.90
2022-12-01T14:48:55.034Z,5.90
2022-12-01T14:51:44.342Z,5.80
2022-12-01T14:54:33.588Z,5.70
2022-12-01T14:57:24.631Z,5.60
2022-12-01T15:00:24.315Z,5.70
2022-12-01T15:03:14.049Z,5.70
2022-12-01T15:05:59.492Z,5.60
2022-12-01T15:09:04.210Z,5.70
2022-12-01T15:11:57.421Z,5.60
2022-12-01T15:14:48.592Z,5.50
2022-12-01T15:17:37.038Z,5.40
2022-12-01T15:20:34.792Z,5.40
2022-12-01T15:23:20.062Z,5.40
2022-12-01T15:26:05.283Z,5.40
2022-12-01T15:29:03.637Z,5.50
2022-12-01T15:31:52.264Z,5.60
2022-12-01T15:34:41.721Z,5.50
2022-12-01T15:37:28.388Z,5.50
2022-12-01T15:43:28.036Z,5.30
2022-12-01T15:46:25.941Z,5.30
2022-12-01T15:49:29.728Z,5.30
2022-12-01T15:52:16.216Z,5.40
2022-12-01T15:55:04.375Z,5.50
2022-12-01T15:57:49.815Z,5.40
2022-12-01T16:00:35.709Z,5.40
2022-12-01T16:03:21.107Z,5.30
2022-12-01T16:06:12.410Z,5.30
2022-12-01T16:09:01.234Z,5.30
2022-12-01T16:12:06.876Z,5.30
2022-12-01T16:15:01.416Z,5.20
2022-12-01T16:17:52.697Z,5.10
2022-12-01T16:20:42.380Z,4.90
2022-12-01T16:23:27.696Z,4.90
2022-12-01T16:26:14.016Z,4.80
2022-12-01T16:28:59.351Z,4.80
2022-12-01T16:32:12.533Z,4.90
2022-12-01T16:34:53.754Z,4.90
2022-12-01T16:37:38.875Z,5.00
2022-12-01T16:40:25.121Z,4.90
2022-12-01T16:43:18.349Z,4.80
2022-12-01T16:46:06.732Z,4.80
2022-12-01T16:48:51.910Z,4.70
2022-12-01T16:51:54.697Z,4.70
2022-12-01T16:54:40.962Z,4.70
2022-12-01T16:57:26.085Z,4.80
2022-12-01T17:00:12.017Z,4.90
2022-12-01T17:02:58.393Z,4.90
2022-12-01T17:05:43.934Z,4.90
2022-12-01T17:08:29.259Z,4.90
2022-12-01T17:11:14.880Z,4.90
2022-12-01T17:14:00.426Z,4.90
2022-12-01T17:16:45.831Z,4.90
2022-12-01T17:19:31.272Z,4.70
2022-12-01T17:22:16.624Z,4.80
2022-12-01T17:25:02.511Z,4.90
2022-12-01T17:27:47.712Z,4.90
2022-12-01T17:30:33.723Z,4.80
2022-12-01T17:33:19.173Z,4.80
2022-12-01T17:36:13.349Z,5.00
2022-12-01T17:38:58.818Z,5.00
2022-12-01T17:41:43.958Z,5.00
2022-12-01T17:44:29.464Z,5.10
2022-12-01T17:47:14.736Z,5.20
2022-12-01T17:50:00.283Z,5.20
2022-12-01T17:52:45.622Z,5.20
2022-12-01T17:55:30.974Z,5.30
2022-12-01T17:58:21.198Z,5.30
2022-12-01T18:01:12.155Z,5.30
2022-12-01T18:03:58.300Z,5.30
2022-12-01T18:06:44.247Z,5.10
2022-12-01T18:09:31.334Z,5.20
2022-12-01T18:12:16.690Z,5.00
2022-12-01T18:15:02.457Z,5.00
2022-12-01T18:17:47.553Z,5.00
2022-12-01T18:20:33.173Z,5.10
2022-12-01T18:23:18.445Z,5.10
2022-12-01T18:26:08.659Z,5.10
2022-12-01T18:29:04.811Z,5.20
2022-12-01T18:31:50.015Z,5.20
2022-12-01T18:34:35.647Z,5.20
2022-12-01T18:37:20.772Z,5.20
2022-12-01T18:40:07.453Z,5.30
2022-12-01T18:42:52.756Z,5.30
2022-12-01T18:45:40.007Z,5.20
2022-12-01T18:48:25.818Z,4.90
2022-12-01T18:51:11.252Z,4.80
2022-12-01T18:53:58.254Z,4.90
2022-12-01T18:56:43.735Z,5.10
2022-12-01T18:59:29.469Z,5.30
2022-12-01T19:02:14.450Z,5.40
2022-12-01T19:05:00.029Z,5.30
2022-12-01T19:07:45.287Z,5.30
2022-12-01T19:10:31.898Z,5.30
2022-12-01T19:13:17.306Z,5.20
2022-12-01T19:16:08.556Z,5.10
2022-12-01T19:18:53.624Z,5.20
2022-12-01T19:21:39.021Z,5.10
2022-12-01T19:24:24.250Z,5.10
2022-12-01T19:27:09.572Z,4.90
2022-12-01T19:29:55.009Z,4.90
2022-12-01T19:32:43.406Z,5.00
2022-12-01T19:35:28.525Z,4.90
2022-12-01T19:38:13.898Z,4.90
2022-12-01T19:40:59.574Z,5.00
2022-12-01T19:43:44.685Z,4.90
2022-12-01T19:46:30.245Z,4.70
2022-12-01T19:49:15.767Z,4.60
2022-12-01T19:52:01.050Z,4.60
2022-12-01T19:54:46.578Z,4.60
2022-12-01T19:57:31.921Z,4.60
2022-12-01T20:00:17.890Z,4.60
2022-12-01T20:03:03.821Z,4.50
2022-12-01T20:05:49.206Z,4.50
2022-12-01T20:08:36.188Z,4.50
2022-12-01T20:11:22.060Z,4.40
2022-12-01T20:14:07.755Z,4.50
2022-12-01T20:16:55.681Z,4.50
2022-12-01T20:19:41.301Z,4.50
2022-12-01T20:22:30.285Z,4.60
2022-12-01T20:25:15.685Z,4.50
2022-12-01T20:28:01.776Z,4.50
2022-12-01T20:30:47.007Z,4.50
2022-12-01T20:33:32.353Z,4.50
2022-12-01T20:36:17.818Z,4.50
2022-12-01T20:39:04.516Z,4.40
2022-12-01T20:41:50.064Z,4.50
2022-12-01T20:44:35.611Z,4.50
2022-12-01T20:47:21.132Z,4.60
2022-12-01T20:50:06.689Z,4.60
2022-12-01T20:52:52.037Z,4.50
2022-12-01T20:55:38.275Z,4.50
2022-12-01T20:58:23.423Z,4.40
2022-12-01T21:01:10.053Z,4.50
2022-12-01T21:03:55.465Z,4.60
2022-12-01T21:06:41.037Z,4.70
2022-12-01T21:09:26.579Z,4.60
2022-12-01T21:12:33.054Z,4.60
2022-12-01T21:15:28.573Z,4.60
2022-12-01T21:18:29.368Z,4.50
2022-12-01T21:21:26.437Z,4.50
2022-12-01T21:24:15.509Z,4.40
2022-12-01T21:27:05.781Z,4.50
2022-12-01T21:29:50.907Z,4.40
2022-12-01T21:32:42.539Z,4.40
2022-12-01T21:35:29.209Z,4.50
2022-12-01T21:38:18.967Z,4.50
2022-12-01T21:41:26.473Z,4.40
2022-12-01T21:44:22.241Z,4.40
2022-12-01T21:47:31.100Z,4.40
2022-12-01T21:50:27.192Z,4.40
2022-12-01T21:53:15.698Z,4.40
2022-12-01T21:56:01.817Z,4.50
2022-12-01T21:58:47.281Z,4.40
2022-12-01T22:01:34.107Z,4.00
2022-12-01T22:04:21.704Z,4.50
2022-12-01T22:07:08.782Z,4.50
2022-12-01T22:09:54.341Z,4.40
2022-12-01T22:12:39.421Z,4.50
2022-12-01T22:15:41.146Z,4.50
2022-12-01T22:18:36.689Z,4.50
2022-12-01T22:21:21.818Z,4.50
2022-12-01T22:24:10.225Z,4.40
2022-12-01T22:27:03.252Z,4.30
2022-12-01T22:29:50.584Z,4.30
2022-12-01T22:32:39.101Z,4.30
2022-12-01T22:35:43.171Z,4.30
2022-12-01T22:38:36.005Z,4.20
2022-12-01T22:41:21.939Z,4.20
2022-12-01T22:44:12.286Z,4.30
2022-12-01T22:47:01.971Z,4.20
2022-12-01T22:49:47.363Z,4.20
2022-12-01T22:52:34.158Z,4.10
2022-12-01T22:55:20.001Z,4.10
2022-12-01T22:58:30.985Z,4.10
2022-12-01T23:01:27.808Z,4.10
2022-12-01T23:04:28.635Z,4.10
2022-12-01T23:07:26.401Z,4.10
2022-12-01T23:10:14.680Z,4.00
2022-12-01T23:13:08.701Z,3.90
2022-12-01T23:15:54.183Z,3.90
2022-12-01T23:18:39.527Z,3.90
2022-12-01T23:21:24.828Z,3.90
2022-12-01T23:24:14.355Z,4.00
2022-12-01T23:26:59.549Z,4.10
2022-12-01T23:29:45.096Z,4.00
2022-12-01T23:32:30.454Z,4.10
2022-12-01T23:35:17.801Z,4.10
2022-12-01T23:38:03.153Z,4.20
2022-12-01T23:40:49.979Z,4.30
2022-12-01T23:43:40.005Z,4.20
2022-12-01T23:46:28.217Z,4.20
2022-12-01T23:49:18.869Z,4.30
2022-12-01T23:52:05.965Z,4.20
2022-12-01T23:54:51.477Z,4.30
2022-12-01T23:57:37.462Z,4.30
